Time;durP1;ratioP1;P1;durP2;ratioP2;P2;SDS_P1;SDS_P2;PMS_P1;PMS_P2;Temp;Humidity;BMP_temperature;BMP_pressure;BME280_temperature;BME280_humidity;BME280_pressure;Samples;Min_cycle;Max_cycle;Signal;HPM_P1;HPM_P2
2024/03/04 00:01:12;;;;;;;14.35;5.55;;;3.60;99.90;;;;;;5012362;28;20100;-67
2024/03/04 00:03:39;;;;;;;14.73;5.18;;;3.60;99.90;;;;;;5013729;28;20299;-69
2024/03/04 00:06:06;;;;;;;8.05;5.03;;;3.50;99.90;;;;;;5016626;28;20566;-68
2024/03/04 00:08:33;;;;;;;10.57;5.13;;;3.50;99.90;;;;;;5016326;28;20057;-67
2024/03/04 00:11:00;;;;;;;9.80;3.85;;;3.40;99.90;;;;;;5010871;28;20110;-69
2024/03/04 00:13:26;;;;;;;9.82;4.75;;;3.40;99.90;;;;;;5020744;28;20064;-69
2024/03/04 00:15:53;;;;;;;7.40;4.38;;;3.30;99.90;;;;;;5020262;28;20173;-67
2024/03/04 00:18:20;;;;;;;9.25;4.38;;;3.40;99.90;;;;;;5029729;28;20115;-71
2024/03/04 00:20:47;;;;;;;7.45;4.53;;;3.40;99.90;;;;;;5017965;28;20456;-68
2024/03/04 00:23:14;;;;;;;9.02;3.95;;;3.40;99.90;;;;;;5023361;28;20184;-70
2024/03/04 00:25:41;;;;;;;12.57;6.35;;;3.40;99.90;;;;;;5017565;28;20064;-67
2024/03/04 00:28:09;;;;;;;11.05;3.92;;;3.30;99.90;;;;;;5019750;28;20489;-68
2024/03/04 00:30:36;;;;;;;6.50;3.50;;;3.30;99.90;;;;;;5019202;28;20107;-68
2024/03/04 00:33:03;;;;;;;10.98;4.45;;;3.20;99.90;;;;;;5023359;28;20492;-69
2024/03/04 00:35:30;;;;;;;8.32;3.40;;;3.20;99.90;;;;;;5022797;28;20091;-68
2024/03/04 00:37:57;;;;;;;7.18;3.88;;;3.10;99.90;;;;;;5025165;28;20053;-67
2024/03/04 00:40:24;;;;;;;11.30;3.58;;;3.10;99.90;;;;;;5025405;28;20523;-68
2024/03/04 00:42:51;;;;;;;11.95;4.68;;;3.10;99.90;;;;;;5018978;28;20056;-67
2024/03/04 00:45:17;;;;;;;10.15;4.25;;;3.10;99.90;;;;;;5018376;28;20054;-69
2024/03/04 00:47:44;;;;;;;5.93;3.33;;;3.00;99.90;;;;;;5022446;28;20053;-68
2024/03/04 00:50:12;;;;;;;7.97;4.65;;;3.00;99.90;;;;;;5017941;28;20049;-68
2024/03/04 00:52:39;;;;;;;5.97;3.53;;;2.90;99.90;;;;;;5020467;28;20103;-68
2024/03/04 00:55:06;;;;;;;9.45;3.92;;;2.90;99.90;;;;;;5021622;28;20132;-69
2024/03/04 00:57:33;;;;;;;5.53;3.20;;;2.90;99.90;;;;;;5017859;28;20088;-69
2024/03/04 01:00:00;;;;;;;7.60;3.50;;;3.00;99.90;;;;;;5015816;28;20312;-69
2024/03/04 01:02:27;;;;;;;8.02;4.07;;;2.90;99.90;;;;;;5017437;28;20045;-68
2024/03/04 01:04:56;;;;;;;6.85;2.95;;;2.90;99.90;;;;;;5024742;28;20052;-69
2024/03/04 01:07:23;;;;;;;6.78;3.30;;;2.90;99.90;;;;;;5018121;28;20042;-69
2024/03/04 01:09:50;;;;;;;10.32;3.15;;;2.90;99.90;;;;;;5020358;28;20112;-68
2024/03/04 01:12:17;;;;;;;11.75;3.63;;;2.80;99.90;;;;;;5020085;28;20347;-68
2024/03/04 01:14:44;;;;;;;8.57;3.75;;;2.80;99.90;;;;;;5014481;28;20504;-68
2024/03/04 01:17:16;;;;;;;7.15;3.85;;;2.70;99.90;;;;;;5015338;28;20103;-67
2024/03/04 01:19:46;;;;;;;5.25;3.15;;;2.70;99.90;;;;;;5021264;28;20501;-68
2024/03/04 01:22:17;;;;;;;6.85;3.15;;;2.60;99.90;;;;;;5019377;28;20054;-67
2024/03/04 01:24:45;;;;;;;7.78;3.25;;;2.60;99.90;;;;;;5022027;28;20517;-68
2024/03/04 01:27:12;;;;;;;13.30;4.57;;;2.50;99.90;;;;;;5024239;28;20554;-67
2024/03/04 01:29:42;;;;;;;7.40;3.78;;;2.50;99.90;;;;;;5038766;28;20415;-68
2024/03/04 01:32:12;;;;;;;7.57;3.42;;;2.50;99.90;;;;;;5025303;28;20050;-67
2024/03/04 01:34:39;;;;;;;7.00;2.88;;;2.50;99.90;;;;;;5021546;28;20087;-68
2024/03/04 01:37:12;;;;;;;10.00;3.65;;;2.30;99.90;;;;;;5022316;28;20080;-68
2024/03/04 01:39:39;;;;;;;5.47;3.28;;;2.30;99.90;;;;;;5019671;28;20049;-67
2024/03/04 01:42:06;;;;;;;8.63;3.58;;;2.30;99.90;;;;;;5024004;28;20245;-68
2024/03/04 01:44:33;;;;;;;5.07;2.90;;;2.30;99.90;;;;;;5021809;28;20169;-68
2024/03/04 01:47:02;;;;;;;8.35;3.25;;;2.30;99.90;;;;;;5021877;28;20048;-68
2024/03/04 01:49:32;;;;;;;6.13;3.00;;;2.30;99.90;;;;;;5034486;28;20057;-68
2024/03/04 01:51:59;;;;;;;7.35;3.17;;;2.40;99.90;;;;;;5023636;28;20041;-68
2024/03/04 01:54:26;;;;;;;9.23;4.13;;;2.20;99.90;;;;;;5020182;28;20084;-68
2024/03/04 01:56:53;;;;;;;7.68;2.90;;;2.20;99.90;;;;;;5022354;28;20154;-68
2024/03/04 01:59:20;;;;;;;9.23;3.35;;;2.20;99.90;;;;;;5023173;28;20519;-68
2024/03/04 02:01:49;;;;;;;10.52;3.08;;;2.30;99.90;;;;;;5020727;28;20095;-67
2024/03/04 02:04:16;;;;;;;5.93;3.17;;;2.20;99.90;;;;;;5021961;28;20132;-67
2024/03/04 02:06:44;;;;;;;9.88;4.38;;;2.20;99.90;;;;;;5019537;28;20111;-67
2024/03/04 02:09:12;;;;;;;9.85;3.22;;;2.20;99.90;;;;;;5015579;28;20041;-67
2024/03/04 02:11:39;;;;;;;4.75;2.60;;;2.20;99.90;;;;;;5022857;28;20493;-68
2024/03/04 02:14:06;;;;;;;5.78;3.03;;;2.20;99.90;;;;;;5030362;28;20409;-68
2024/03/04 02:16:33;;;;;;;6.35;3.22;;;2.20;99.90;;;;;;5024053;28;20421;-68
2024/03/04 02:19:00;;;;;;;5.95;2.75;;;2.20;99.90;;;;;;5020813;28;20041;-67
2024/03/04 02:21:29;;;;;;;5.45;2.72;;;2.20;99.90;;;;;;5025155;28;20057;-67
2024/03/04 02:23:56;;;;;;;6.35;2.90;;;2.20;99.90;;;;;;5017017;28;20050;-68
2024/03/04 02:26:22;;;;;;;4.95;2.65;;;2.20;99.90;;;;;;5023190;28;20052;-68
2024/03/04 02:28:49;;;;;;;5.03;2.72;;;2.20;99.90;;;;;;5021138;28;20045;-68
2024/03/04 02:31:16;;;;;;;6.78;3.40;;;2.10;99.90;;;;;;5020907;28;20046;-68
2024/03/04 02:33:45;;;;;;;9.18;2.92;;;2.10;99.90;;;;;;5029614;28;20157;-68
2024/03/04 02:36:12;;;;;;;6.22;2.63;;;2.30;99.90;;;;;;5021856;28;20115;-68
2024/03/04 02:38:38;;;;;;;7.07;3.08;;;2.10;99.90;;;;;;5021944;28;20042;-68
2024/03/04 02:41:05;;;;;;;5.03;2.92;;;2.10;99.90;;;;;;5022497;28;20041;-68
2024/03/04 02:43:32;;;;;;;8.52;2.97;;;2.10;99.90;;;;;;5017394;28;20401;-68
2024/03/04 02:45:59;;;;;;;3.42;2.60;;;2.10;99.90;;;;;;5022020;28;20089;-68
2024/03/04 02:48:26;;;;;;;3.65;2.15;;;2.00;99.90;;;;;;5024827;28;20743;-68
2024/03/04 02:50:53;;;;;;;6.70;3.35;;;1.90;99.90;;;;;;5026252;28;20123;-69
2024/03/04 02:53:20;;;;;;;3.13;2.38;;;1.90;99.90;;;;;;5026332;28;20091;-68
2024/03/04 02:55:46;;;;;;;8.88;3.45;;;1.80;99.90;;;;;;5026725;28;20547;-69
2024/03/04 02:58:13;;;;;;;9.05;3.38;;;1.80;99.90;;;;;;5015524;28;20539;-68
2024/03/04 03:00:40;;;;;;;11.38;2.40;;;1.80;99.90;;;;;;5019023;28;20041;-67
2024/03/04 03:03:07;;;;;;;9.68;3.42;;;1.80;99.90;;;;;;5026178;28;20440;-68
2024/03/04 03:05:34;;;;;;;6.85;3.00;;;1.90;99.90;;;;;;5026097;28;20045;-68
2024/03/04 03:08:01;;;;;;;8.00;2.42;;;1.80;99.90;;;;;;5025573;28;20052;-68
2024/03/04 03:10:28;;;;;;;6.43;2.65;;;1.80;99.90;;;;;;5025425;28;20890;-68
2024/03/04 03:12:55;;;;;;;5.57;2.20;;;1.80;99.90;;;;;;5027232;28;20041;-67
2024/03/04 03:15:22;;;;;;;4.40;2.55;;;1.80;99.90;;;;;;5026956;28;20049;-68
2024/03/04 03:17:49;;;;;;;6.80;2.72;;;1.90;99.90;;;;;;5024067;28;20061;-68
2024/03/04 03:20:20;;;;;;;5.78;2.90;;;1.90;99.90;;;;;;5025966;28;20065;-69
2024/03/04 03:22:48;;;;;;;5.90;2.53;;;1.90;99.90;;;;;;5024582;28;20041;-68
2024/03/04 03:25:15;;;;;;;3.10;2.20;;;1.80;99.90;;;;;;5026830;28;20045;-68
2024/03/04 03:27:42;;;;;;;5.38;2.88;;;1.80;99.90;;;;;;5024172;28;20049;-69
2024/03/04 03:30:10;;;;;;;7.05;2.72;;;1.80;99.90;;;;;;5022954;28;20083;-69
2024/03/04 03:32:37;;;;;;;6.97;3.00;;;1.80;99.90;;;;;;5028050;28;20046;-68
2024/03/04 03:35:04;;;;;;;5.40;2.63;;;1.90;99.90;;;;;;5022242;28;20300;-70
2024/03/04 03:37:32;;;;;;;4.70;2.38;;;1.70;99.90;;;;;;5024283;28;20668;-69
2024/03/04 03:40:00;;;;;;;7.55;2.97;;;1.80;99.90;;;;;;5025933;28;20441;-69
2024/03/04 03:42:27;;;;;;;3.10;2.35;;;1.70;99.90;;;;;;5024004;28;20049;-68
2024/03/04 03:44:55;;;;;;;7.13;2.42;;;1.80;99.90;;;;;;5025127;28;20053;-69
2024/03/04 03:47:22;;;;;;;6.93;2.15;;;1.70;99.90;;;;;;5018066;28;20049;-68
2024/03/04 03:49:49;;;;;;;7.75;2.55;;;1.80;99.90;;;;;;5022483;28;20042;-69
2024/03/04 03:52:16;;;;;;;6.25;2.28;;;1.80;99.90;;;;;;5024304;28;20515;-68
2024/03/04 03:54:43;;;;;;;6.75;2.80;;;1.80;99.90;;;;;;5026487;28;20057;-68
2024/03/04 03:57:10;;;;;;;4.85;2.50;;;1.70;99.90;;;;;;5025952;28;20107;-67
2024/03/04 03:59:36;;;;;;;7.07;2.38;;;1.70;99.90;;;;;;5022832;28;20042;-69
2024/03/04 04:02:03;;;;;;;6.00;2.92;;;1.70;99.90;;;;;;5024073;28;20049;-68
2024/03/04 04:04:30;;;;;;;9.48;2.78;;;1.70;99.90;;;;;;5021537;28;20069;-69
2024/03/04 04:06:57;;;;;;;5.75;2.97;;;1.70;99.90;;;;;;5024726;28;20132;-69
2024/03/04 04:09:24;;;;;;;5.88;3.10;;;1.80;99.90;;;;;;5025436;28;20331;-69
2024/03/04 04:11:51;;;;;;;7.20;2.20;;;1.70;99.90;;;;;;5023446;28;20046;-68
2024/03/04 04:14:18;;;;;;;4.32;2.53;;;1.70;99.90;;;;;;5020041;28;20092;-68
2024/03/04 04:16:45;;;;;;;7.07;2.97;;;1.60;99.90;;;;;;5014355;28;20037;-68
2024/03/04 04:19:12;;;;;;;3.08;2.00;;;1.60;99.90;;;;;;5024342;28;20046;-68
2024/03/04 04:21:40;;;;;;;5.70;2.25;;;1.60;99.90;;;;;;5021081;28;20140;-68
2024/03/04 04:24:07;;;;;;;3.40;2.38;;;1.80;99.90;;;;;;5022954;28;20037;-67
2024/03/04 04:26:34;;;;;;;5.13;2.05;;;1.60;99.90;;;;;;5019530;28;20130;-67
2024/03/04 04:29:03;;;;;;;5.63;1.98;;;1.50;99.90;;;;;;5023916;28;20056;-67
2024/03/04 04:31:29;;;;;;;5.53;2.08;;;1.50;99.90;;;;;;5021052;28;20049;-68
2024/03/04 04:33:56;;;;;;;4.18;1.98;;;1.50;99.90;;;;;;5023032;28;20046;-68
2024/03/04 04:36:23;;;;;;;4.18;2.03;;;1.60;99.90;;;;;;5025587;28;20548;-68
2024/03/04 04:38:50;;;;;;;3.70;1.70;;;1.60;99.90;;;;;;5023629;28;20053;-68
2024/03/04 04:41:17;;;;;;;7.13;2.63;;;1.60;99.90;;;;;;5025063;28;20048;-69
2024/03/04 04:43:44;;;;;;;4.20;1.80;;;1.60;99.90;;;;;;5025008;28;20053;-68
2024/03/04 04:46:11;;;;;;;3.45;2.08;;;1.70;99.90;;;;;;5025526;28;20084;-69
2024/03/04 04:48:38;;;;;;;5.93;1.83;;;1.70;99.90;;;;;;5023810;28;20045;-68
2024/03/04 04:51:05;;;;;;;2.72;1.95;;;1.70;99.90;;;;;;5024620;28;20492;-68
2024/03/04 04:53:32;;;;;;;3.25;1.92;;;1.80;99.90;;;;;;5024284;28;20074;-68
2024/03/04 04:55:59;;;;;;;5.22;1.75;;;1.80;99.90;;;;;;5023441;28;20111;-67
2024/03/04 04:58:26;;;;;;;5.00;1.90;;;1.80;99.90;;;;;;5026688;28;20556;-67
2024/03/04 05:00:56;;;;;;;3.80;2.20;;;1.90;99.90;;;;;;5023844;28;20054;-67
2024/03/04 05:03:24;;;;;;;5.85;2.03;;;2.00;99.90;;;;;;5025246;28;20049;-69
2024/03/04 05:06:14;;;;;;;5.20;1.65;;;2.00;99.90;;;;;;5023934;28;20041;-68
2024/03/04 05:08:41;;;;;;;5.15;1.80;;;2.10;99.90;;;;;;5023487;28;20060;-68
2024/03/04 05:11:09;;;;;;;6.18;1.95;;;2.20;99.90;;;;;;5023424;28;20077;-67
2024/03/04 05:13:36;;;;;;;3.00;1.95;;;2.20;99.90;;;;;;5021651;28;20049;-67
2024/03/04 05:16:07;;;;;;;5.95;2.35;;;2.30;99.90;;;;;;5018197;28;20041;-68
2024/03/04 05:18:35;;;;;;;3.53;2.50;;;2.30;99.90;;;;;;5022025;28;20085;-68
2024/03/04 05:21:06;;;;;;;7.20;1.83;;;2.30;99.90;;;;;;5023266;28;20392;-68
2024/03/04 05:23:33;;;;;;;2.47;1.70;;;2.40;99.90;;;;;;5019133;28;20274;-68
2024/03/04 05:26:00;;;;;;;3.65;2.03;;;2.40;99.90;;;;;;5025205;28;20049;-67
2024/03/04 05:28:27;;;;;;;4.50;2.28;;;2.50;99.90;;;;;;5017569;28;20045;-68
2024/03/04 05:30:54;;;;;;;3.83;1.75;;;2.50;99.90;;;;;;5023326;28;20546;-69
2024/03/04 05:33:21;;;;;;;2.28;1.45;;;2.60;99.90;;;;;;5023588;28;20033;-68
2024/03/04 05:35:48;;;;;;;1.98;1.23;;;2.70;99.90;;;;;;5018869;28;20607;-68
2024/03/04 05:38:15;;;;;;;1.88;1.35;;;2.70;99.90;;;;;;5023134;28;20500;-68
2024/03/04 05:40:42;;;;;;;9.98;2.17;;;2.70;99.90;;;;;;5023985;28;20501;-68
2024/03/04 05:43:09;;;;;;;3.78;1.63;;;2.80;99.90;;;;;;5021344;28;20042;-68
2024/03/04 05:45:36;;;;;;;6.45;1.65;;;2.70;99.90;;;;;;5024140;28;20057;-68
2024/03/04 05:48:04;;;;;;;5.13;2.40;;;2.80;99.90;;;;;;5022634;28;20072;-69
2024/03/04 05:50:31;;;;;;;3.40;1.40;;;2.80;99.90;;;;;;5023332;28;20084;-69
2024/03/04 05:53:01;;;;;;;5.45;2.05;;;2.70;99.90;;;;;;5023135;28;20053;-68
2024/03/04 05:55:28;;;;;;;4.28;2.03;;;2.70;99.90;;;;;;5022949;28;20042;-68
2024/03/04 05:57:55;;;;;;;4.70;1.92;;;2.70;99.90;;;;;;5024147;28;20123;-68
2024/03/04 06:00:22;;;;;;;3.38;1.45;;;2.70;99.90;;;;;;5025314;28;20088;-67
2024/03/04 06:02:48;;;;;;;3.70;1.55;;;2.70;99.90;;;;;;5024102;28;20084;-69
2024/03/04 06:05:15;;;;;;;3.92;2.83;;;2.80;99.90;;;;;;5024288;28;20053;-67
2024/03/04 06:07:42;;;;;;;8.65;1.80;;;2.80;99.90;;;;;;5020980;28;20042;-68
2024/03/04 06:10:09;;;;;;;4.68;1.67;;;2.70;99.90;;;;;;5023156;28;20496;-68
2024/03/04 06:12:36;;;;;;;9.77;2.17;;;2.70;99.90;;;;;;5021333;28;20042;-69
2024/03/04 06:15:03;;;;;;;5.43;1.65;;;2.70;99.90;;;;;;5051543;28;20053;-68
2024/03/04 06:17:30;;;;;;;2.53;1.55;;;2.70;99.90;;;;;;5022336;28;20099;-68
2024/03/04 06:19:57;;;;;;;4.40;2.03;;;2.80;99.90;;;;;;5020339;28;20435;-68
2024/03/04 06:22:24;;;;;;;5.32;1.83;;;2.90;99.90;;;;;;5017639;28;20091;-68
2024/03/04 06:24:56;;;;;;;5.93;2.03;;;2.80;99.90;;;;;;5021330;28;20041;-68
2024/03/04 06:27:24;;;;;;;4.22;1.67;;;2.80;99.90;;;;;;5019280;28;20045;-67
2024/03/04 06:29:51;;;;;;;6.35;2.03;;;2.80;99.90;;;;;;5026967;28;20095;-68
2024/03/04 06:32:18;;;;;;;7.63;2.88;;;2.80;99.90;;;;;;5021833;28;20049;-68
2024/03/04 06:34:45;;;;;;;3.25;1.60;;;2.80;99.90;;;;;;5024452;28;20049;-67
2024/03/04 06:37:14;;;;;;;7.50;1.85;;;2.80;99.90;;;;;;5027387;28;20053;-68
2024/03/04 06:39:40;;;;;;;5.45;2.45;;;2.80;99.90;;;;;;5023966;28;20060;-68
2024/03/04 06:42:07;;;;;;;7.53;3.10;;;2.80;99.90;;;;;;5025188;28;20041;-68
2024/03/04 06:44:35;;;;;;;4.57;2.28;;;2.90;99.90;;;;;;5027364;28;20265;-68
2024/03/04 06:47:03;;;;;;;6.30;1.73;;;2.90;99.90;;;;;;5026402;28;20049;-68
2024/03/04 06:49:30;;;;;;;5.45;2.13;;;2.90;99.90;;;;;;5027112;28;20049;-68
2024/03/04 06:51:57;;;;;;;4.05;2.10;;;2.90;99.90;;;;;;5030672;28;20045;-69
2024/03/04 06:54:24;;;;;;;7.15;1.88;;;2.80;99.90;;;;;;5027414;28;20076;-68
2024/03/04 06:56:51;;;;;;;6.78;1.90;;;2.90;99.90;;;;;;5027646;28;20080;-68
2024/03/04 06:59:18;;;;;;;5.78;2.35;;;2.90;99.90;;;;;;5024051;28;20041;-68
2024/03/04 07:01:45;;;;;;;10.15;2.60;;;2.90;99.90;;;;;;5030272;28;20406;-68
2024/03/04 07:04:12;;;;;;;4.90;3.03;;;2.90;99.90;;;;;;5026871;28;20045;-68
2024/03/04 07:06:39;;;;;;;16.25;3.20;;;2.90;99.90;;;;;;5026145;28;20515;-68
2024/03/04 07:09:05;;;;;;;7.50;2.83;;;2.90;99.90;;;;;;5034086;28;20531;-69
2024/03/04 07:11:32;;;;;;;8.45;2.60;;;3.00;99.90;;;;;;5026572;28;20057;-69
2024/03/04 07:13:59;;;;;;;9.30;3.15;;;3.00;99.90;;;;;;5026393;28;20053;-68
2024/03/04 07:16:26;;;;;;;8.13;2.83;;;3.00;99.90;;;;;;5024780;28;20121;-67
2024/03/04 07:18:53;;;;;;;5.30;2.35;;;3.10;99.90;;;;;;5026222;28;20046;-68
2024/03/04 07:21:22;;;;;;;6.20;2.67;;;3.10;99.90;;;;;;5023095;28;20103;-70
2024/03/04 07:23:49;;;;;;;9.60;4.25;;;3.20;99.90;;;;;;5031363;28;20049;-68
2024/03/04 07:26:19;;;;;;;5.78;2.63;;;3.30;99.90;;;;;;5028477;28;20054;-68
2024/03/04 07:28:47;;;;;;;10.18;3.55;;;3.40;99.90;;;;;;5023273;28;20076;-67
2024/03/04 07:31:14;;;;;;;6.00;2.58;;;3.40;99.90;;;;;;5031062;28;20569;-66
2024/03/04 07:33:42;;;;;;;10.57;2.88;;;3.50;99.90;;;;;;5023544;28;20053;-67
2024/03/04 07:36:13;;;;;;;9.55;3.28;;;3.60;99.90;;;;;;5026395;28;20064;-68
2024/03/04 07:38:43;;;;;;;7.65;3.13;;;3.60;99.90;;;;;;5026385;28;20034;-67
2024/03/04 07:41:10;;;;;;;3.10;2.40;;;3.70;99.90;;;;;;5022649;28;20076;-68
2024/03/04 07:43:39;;;;;;;4.63;2.88;;;3.80;99.90;;;;;;5026073;28;20111;-69
2024/03/04 07:46:06;;;;;;;4.40;3.10;;;3.80;99.90;;;;;;5026730;28;20053;-68
2024/03/04 07:48:33;;;;;;;8.23;2.70;;;3.90;99.90;;;;;;5029435;28;20133;-67
2024/03/04 07:51:02;;;;;;;11.48;3.45;;;3.90;99.90;;;;;;5028706;28;20103;-66
2024/03/04 07:53:29;;;;;;;9.77;3.63;;;4.00;99.90;;;;;;5030918;28;20563;-67
2024/03/04 07:55:55;;;;;;;7.88;3.20;;;4.00;99.90;;;;;;5026763;28;20060;-70
2024/03/04 07:58:22;;;;;;;9.45;3.22;;;4.10;99.90;;;;;;5027275;28;20152;-67
2024/03/04 08:00:49;;;;;;;5.82;2.95;;;4.20;99.90;;;;;;5028624;28;20053;-68
2024/03/04 08:03:16;;;;;;;10.48;3.30;;;4.30;99.90;;;;;;5025588;28;20053;-67
2024/03/04 08:05:45;;;;;;;8.43;3.20;;;4.40;99.90;;;;;;5025317;28;20045;-67
2024/03/04 08:08:12;;;;;;;7.57;3.35;;;4.50;99.90;;;;;;5035422;28;20128;-69
2024/03/04 08:10:39;;;;;;;7.18;2.30;;;4.50;99.90;;;;;;5036559;28;20049;-68
2024/03/04 08:13:05;;;;;;;7.78;2.47;;;4.60;99.90;;;;;;5039283;28;20136;-68
2024/03/04 08:15:32;;;;;;;7.47;3.28;;;4.60;99.90;;;;;;5026822;28;20589;-67
2024/03/04 08:18:00;;;;;;;4.45;2.83;;;4.70;99.90;;;;;;5030357;28;21449;-70
2024/03/04 08:20:27;;;;;;;4.20;2.65;;;4.80;99.90;;;;;;5030428;28;20049;-69
2024/03/04 08:23:01;;;;;;;9.60;2.53;;;4.90;99.90;;;;;;5029242;28;20054;-67
2024/03/04 08:25:28;;;;;;;6.40;2.33;;;4.90;99.90;;;;;;5033649;28;20038;-67
2024/03/04 08:27:55;;;;;;;6.78;2.92;;;5.00;99.90;;;;;;5028916;28;20046;-67
2024/03/04 08:30:22;;;;;;;11.95;2.80;;;5.10;99.90;;;;;;5026160;28;20041;-69
2024/03/04 08:32:51;;;;;;;5.50;2.10;;;5.20;99.90;;;;;;5025078;28;20099;-68
2024/03/04 08:35:18;;;;;;;9.13;2.33;;;5.30;99.90;;;;;;5023673;28;20389;-68
2024/03/04 08:37:45;;;;;;;4.85;2.08;;;5.40;99.90;;;;;;5025507;28;20053;-68
2024/03/04 08:40:15;;;;;;;8.23;2.40;;;5.50;99.90;;;;;;5025251;28;20049;-67
2024/03/04 08:42:42;;;;;;;4.65;1.90;;;5.60;99.90;;;;;;5026817;28;20049;-68
2024/03/04 08:45:09;;;;;;;6.78;2.38;;;5.70;99.90;;;;;;5029814;28;20050;-68
2024/03/04 08:47:38;;;;;;;4.35;2.38;;;5.80;99.90;;;;;;5020058;28;20080;-68
2024/03/04 08:50:05;;;;;;;9.00;1.90;;;5.90;99.90;;;;;;5029629;28;20049;-68
2024/03/04 08:52:32;;;;;;;3.85;1.73;;;6.10;99.90;;;;;;5024605;28;20545;-68
2024/03/04 08:54:59;;;;;;;5.45;2.10;;;6.20;99.90;;;;;;5019624;28;20096;-68
2024/03/04 08:57:27;;;;;;;10.02;1.88;;;6.40;99.90;;;;;;5025022;28;20049;-68
2024/03/04 08:59:54;;;;;;;7.15;2.28;;;6.60;99.90;;;;;;5032545;28;20048;-69
2024/03/04 09:02:22;;;;;;;8.85;1.40;;;6.80;99.90;;;;;;5023699;28;20046;-69
2024/03/04 09:04:49;;;;;;;10.23;1.92;;;7.10;99.90;;;;;;5039221;28;20052;-69
2024/03/04 09:07:17;;;;;;;7.40;1.52;;;7.40;99.90;;;;;;5031575;28;20048;-68
2024/03/04 09:09:50;;;;;;;8.00;1.45;;;7.60;99.90;;;;;;5021266;28;20050;-69
2024/03/04 09:12:18;;;;;;;9.98;1.40;;;7.90;99.90;;;;;;5025502;28;20048;-69
2024/03/04 09:14:45;;;;;;;6.72;1.92;;;8.30;99.90;;;;;;5022958;28;20064;-69
2024/03/04 09:17:12;;;;;;;5.10;1.27;;;8.50;99.90;;;;;;5021992;28;20111;-69
2024/03/04 09:19:41;;;;;;;7.72;1.15;;;8.80;99.90;;;;;;5024499;28;20499;-68
2024/03/04 09:22:08;;;;;;;7.72;1.48;;;9.10;99.90;;;;;;5015326;28;20095;-68
2024/03/04 09:24:35;;;;;;;7.47;1.08;;;9.40;99.90;;;;;;5023220;28;20259;-68
2024/03/04 09:27:02;;;;;;;7.75;1.70;;;9.70;99.90;;;;;;5035212;28;20182;-69
2024/03/04 09:29:29;;;;;;;8.50;1.50;;;9.80;99.90;;;;;;5023382;28;20052;-69
2024/03/04 09:31:56;;;;;;;9.70;2.08;;;9.70;99.90;;;;;;5024002;28;20051;-70
2024/03/04 09:34:23;;;;;;;4.00;1.13;;;9.70;99.90;;;;;;5024239;28;20107;-70
2024/03/04 09:36:50;;;;;;;4.95;1.33;;;9.80;99.90;;;;;;5021617;28;20049;-70
2024/03/04 09:39:17;;;;;;;8.25;1.17;;;9.90;99.90;;;;;;5023575;28;20073;-69
2024/03/04 09:41:44;;;;;;;6.95;1.00;;;9.70;99.90;;;;;;5020406;28;20057;-68
2024/03/04 09:44:10;;;;;;;3.33;0.73;;;9.60;99.90;;;;;;5023758;28;20041;-68
2024/03/04 09:46:38;;;;;;;4.53;0.75;;;9.50;99.90;;;;;;5004632;28;20341;-68
2024/03/04 09:49:05;;;;;;;5.78;1.10;;;9.50;99.90;;;;;;5023629;28;20125;-68
2024/03/04 09:51:32;;;;;;;7.78;1.45;;;9.50;99.90;;;;;;5023006;28;20060;-69
2024/03/04 09:53:59;;;;;;;8.40;1.80;;;9.40;99.90;;;;;;5019152;28;20103;-69
2024/03/04 09:56:26;;;;;;;7.75;0.98;;;9.40;99.90;;;;;;5021525;28;20379;-69
2024/03/04 09:58:54;;;;;;;6.38;1.13;;;9.50;99.90;;;;;;5013526;28;20042;-69
2024/03/04 10:01:20;;;;;;;4.22;1.17;;;9.60;99.90;;;;;;5027869;28;20056;-69
2024/03/04 10:03:48;;;;;;;4.65;1.05;;;9.60;99.90;;;;;;5020931;28;20049;-69
2024/03/04 10:06:16;;;;;;;9.13;1.73;;;9.50;99.90;;;;;;5024855;28;20033;-68
2024/03/04 10:08:42;;;;;;;5.80;1.20;;;9.50;99.90;;;;;;5026970;28;20049;-69
2024/03/04 10:11:09;;;;;;;9.98;1.95;;;9.50;99.90;;;;;;5026855;28;20131;-68
2024/03/04 10:13:36;;;;;;;6.30;1.10;;;9.50;99.90;;;;;;5029076;28;20120;-69
2024/03/04 10:16:07;;;;;;;8.68;1.23;;;9.60;99.90;;;;;;5023990;28;20055;-69
2024/03/04 10:18:34;;;;;;;13.68;2.67;;;9.70;99.90;;;;;;5027886;28;20507;-68
2024/03/04 10:21:02;;;;;;;7.95;1.02;;;9.70;99.90;;;;;;5022314;28;20487;-68
2024/03/04 10:23:28;;;;;;;11.00;1.60;;;9.70;99.90;;;;;;5018640;28;20041;-69
2024/03/04 10:26:06;;;;;;;6.72;2.28;;;9.70;99.90;;;;;;5029239;28;20619;-68
2024/03/04 10:28:40;;;;;;;12.73;2.75;;;9.70;99.90;;;;;;5025107;28;20057;-69
2024/03/04 10:31:10;;;;;;;6.50;1.23;;;9.70;99.90;;;;;;5024174;28;20076;-69
2024/03/04 10:33:39;;;;;;;6.63;1.40;;;9.70;99.90;;;;;;5029471;28;20053;-70
2024/03/04 10:36:19;;;;;;;8.57;1.20;;;9.80;99.90;;;;;;5031526;28;20084;-69
2024/03/04 10:38:49;;;;;;;10.35;2.20;;;9.90;99.90;;;;;;5024551;28;20057;-70
2024/03/04 10:41:20;;;;;;;14.52;1.42;;;10.00;99.90;;;;;;5028105;28;20042;-69
2024/03/04 10:43:48;;;;;;;12.13;2.10;;;10.00;99.90;;;;;;5026766;28;20050;-69
2024/03/04 10:46:16;;;;;;;11.35;1.50;;;10.00;99.90;;;;;;5028259;28;20175;-69
2024/03/04 10:48:47;;;;;;;10.00;2.13;;;10.00;99.90;;;;;;5026074;28;20053;-69
2024/03/04 10:51:17;;;;;;;15.15;1.90;;;9.90;99.90;;;;;;5027083;28;20115;-69
2024/03/04 10:53:44;;;;;;;8.27;1.55;;;9.90;99.90;;;;;;5021352;28;20128;-70
2024/03/04 10:56:14;;;;;;;2.50;1.17;;;10.00;99.90;;;;;;5025591;28;20327;-70
2024/03/04 10:58:45;;;;;;;10.77;1.65;;;10.10;99.90;;;;;;5020117;28;20054;-69
2024/03/04 11:01:14;;;;;;;24.25;4.03;;;10.10;99.90;;;;;;5031261;28;20512;-69
2024/03/04 11:03:42;;;;;;;12.50;1.90;;;10.10;99.90;;;;;;5028414;28;20100;-69
2024/03/04 11:06:15;;;;;;;7.07;1.60;;;10.20;99.90;;;;;;5020237;28;20064;-69
2024/03/04 11:08:49;;;;;;;10.27;2.97;;;10.30;99.90;;;;;;5011193;28;20053;-70
2024/03/04 11:11:42;;;;;;;4.68;1.40;;;10.40;99.90;;;;;;5032528;28;20042;-68
2024/03/04 11:14:18;;;;;;;7.72;1.48;;;10.40;99.90;;;;;;5017283;28;20132;-69
2024/03/04 11:17:04;;;;;;;8.30;1.83;;;10.50;99.90;;;;;;5025938;28;20111;-68
2024/03/04 11:19:49;;;;;;;7.57;1.52;;;10.50;99.90;;;;;;5021811;28;20045;-70
2024/03/04 11:22:16;;;;;;;12.80;2.25;;;10.40;99.90;;;;;;5029426;28;20056;-68
2024/03/04 11:24:43;;;;;;;7.22;1.38;;;10.30;99.90;;;;;;5026503;28;20051;-70
2024/03/04 11:27:10;;;;;;;7.85;1.77;;;10.20;99.90;;;;;;5026668;28;20366;-69
2024/03/04 11:29:37;;;;;;;7.80;1.60;;;10.20;99.90;;;;;;5026194;28;20069;-69
2024/03/04 11:32:04;;;;;;;6.53;1.20;;;10.20;99.90;;;;;;5009256;28;20526;-69
2024/03/04 11:34:51;;;;;;;9.20;1.75;;;10.30;99.90;;;;;;5027586;28;20050;-68
2024/03/04 11:37:18;;;;;;;9.20;1.63;;;10.40;99.90;;;;;;5026730;28;20468;-69
2024/03/04 11:39:45;;;;;;;9.80;1.10;;;10.50;99.90;;;;;;5026446;28;20306;-69
2024/03/04 11:42:21;;;;;;;8.18;1.33;;;10.50;99.90;;;;;;5026540;28;20462;-68
2024/03/04 11:44:48;;;;;;;9.32;1.30;;;10.50;99.90;;;;;;5026386;28;20062;-69
2024/03/04 11:47:15;;;;;;;15.75;2.05;;;10.50;99.90;;;;;;5027026;28;20100;-70
2024/03/04 11:49:45;;;;;;;14.07;1.70;;;10.50;99.90;;;;;;5017888;28;20050;-70
2024/03/04 11:52:17;;;;;;;9.32;1.92;;;10.50;99.90;;;;;;5022340;28;20073;-69
2024/03/04 11:54:46;;;;;;;11.32;1.52;;;10.50;99.90;;;;;;5026490;28;20045;-69
2024/03/04 11:57:13;;;;;;;5.72;1.50;;;10.70;99.90;;;;;;5025830;28;20480;-69
2024/03/04 11:59:41;;;;;;;7.20;1.10;;;10.70;99.90;;;;;;5026071;28;20092;-69
2024/03/04 12:02:12;;;;;;;7.05;2.03;;;10.70;99.90;;;;;;5027123;28;20512;-68
2024/03/04 12:04:42;;;;;;;6.25;1.00;;;10.80;99.90;;;;;;5027809;28;20057;-68
2024/03/04 12:07:09;;;;;;;14.82;1.13;;;10.80;99.90;;;;;;5026481;28;20108;-70
2024/03/04 12:09:36;;;;;;;6.20;1.00;;;10.90;99.90;;;;;;5026434;28;20508;-70
2024/03/04 12:12:23;;;;;;;9.23;0.95;;;10.90;99.90;;;;;;5027758;28;20052;-69
2024/03/04 12:14:51;;;;;;;8.68;1.40;;;10.80;99.90;;;;;;5026042;28;20062;-69
2024/03/04 12:17:17;;;;;;;10.90;1.52;;;10.80;99.90;;;;;;5025886;28;20041;-69
2024/03/04 12:19:52;;;;;;;11.20;1.50;;;10.80;99.90;;;;;;5028158;28;20049;-69
2024/03/04 12:22:28;;;;;;;8.27;1.50;;;10.90;99.90;;;;;;5027950;28;20176;-69
2024/03/04 12:25:06;;;;;;;7.15;1.13;;;11.00;99.90;;;;;;5021082;28;20260;-70
2024/03/04 12:27:34;;;;;;;6.50;1.52;;;11.10;99.90;;;;;;5026293;28;20408;-69
2024/03/04 12:30:15;;;;;;;6.05;1.15;;;11.10;99.90;;;;;;5024280;28;20409;-70
2024/03/04 12:32:42;;;;;;;8.68;3.30;;;11.10;99.90;;;;;;5025306;28;20104;-68
2024/03/04 12:35:23;;;;;;;12.50;1.40;;;11.10;99.90;;;;;;5048750;28;20053;-68
2024/03/04 12:37:50;;;;;;;6.13;1.17;;;11.00;99.90;;;;;;5019723;28;20053;-68
2024/03/04 12:40:19;;;;;;;11.27;1.17;;;10.90;99.90;;;;;;5025118;28;20291;-69
2024/03/04 12:42:58;;;;;;;5.65;1.10;;;10.90;99.90;;;;;;5026833;28;20049;-68
2024/03/04 12:45:25;;;;;;;4.43;1.20;;;10.90;99.90;;;;;;5029458;28;20444;-69
2024/03/04 12:47:55;;;;;;;11.70;1.42;;;10.90;99.90;;;;;;5030633;28;20361;-68
2024/03/04 12:50:26;;;;;;;6.40;1.30;;;10.90;99.90;;;;;;5025848;28;20108;-67
2024/03/04 12:52:53;;;;;;;4.25;1.50;;;10.90;99.90;;;;;;5025349;28;20049;-67
2024/03/04 12:55:20;;;;;;;10.45;1.40;;;10.90;99.90;;;;;;5026725;28;20099;-68
2024/03/04 12:57:48;;;;;;;3.00;1.08;;;10.90;99.90;;;;;;5021218;28;20217;-70